ETD9R5 OMAA-YSSY
Flight info
| Callsign | ETD9R5 |
|---|---|
| Flight time | N/A |
| Altitude | 33000 |
| Route | KANIP N318 TOLDA P570 EMURU M300 VASTU P895 BIKOK M641 KAT N640 ELATI DCT 06S094E DCT EPGUP/N0500F350 DCT EMVAS DCT 17S109E DCT KA/N0491F370 DCT 22S120E DCT NONAX DCT UPRUN DCT 2700S13330E 29S138E DCT MEMOV G222 VAGPO Y71 VELGI Y105 TARAL Y59 RIVET |
| Aircraft | A35K/H-SDE2E3GHIJ3J4J5LM1ORWXY/LB1D1 |
Departure
| Time | 2026-05-05 05:32 |
|---|---|
| Airport | Zayed International Airport (OMAA) |
Arrival
| Time | N/A |
|---|---|
| Airport | Sydney Kingsford Smith International Airport (YSSY) |
| Time | Latitude | Longitude | Altitude | Speed | Heading |
|---|---|---|---|---|---|
| 2026-05-05 05:24 | 24.44449 | 54.65041 | 86 ft | 12 kts | 129° |
| 2026-05-05 05:24 | 24.44394 | 54.65115 | 86 ft | 12 kts | 129° |
| 2026-05-05 05:25 | 24.44359 | 54.65183 | 86 ft | 8 kts | 93° |
| 2026-05-05 05:25 | 24.44391 | 54.65232 | 86 ft | 9 kts | 39° |
| 2026-05-05 05:25 | 24.44445 | 54.65279 | 88 ft | 11 kts | 38° |
| 2026-05-05 05:25 | 24.44512 | 54.65335 | 88 ft | 13 kts | 37° |
| 2026-05-05 05:26 | 24.44588 | 54.65399 | 87 ft | 14 kts | 38° |
| 2026-05-05 05:26 | 24.44671 | 54.65470 | 87 ft | 16 kts | 38° |
| 2026-05-05 05:26 | 24.44760 | 54.65546 | 87 ft | 17 kts | 37° |
| 2026-05-05 05:26 | 24.44841 | 54.65615 | 87 ft | 12 kts | 38° |
| 2026-05-05 05:27 | 24.44850 | 54.65687 | 86 ft | 10 kts | 117° |
| 2026-05-05 05:27 | 24.44808 | 54.65754 | 88 ft | 12 kts | 127° |
| 2026-05-05 05:27 | 24.44695 | 54.65914 | 88 ft | 15 kts | 128° |
| 2026-05-05 05:28 | 24.44628 | 54.66007 | 89 ft | 16 kts | 128° |
| 2026-05-05 05:28 | 24.44557 | 54.66108 | 88 ft | 17 kts | 128° |
| 2026-05-05 05:28 | 24.44481 | 54.66215 | 88 ft | 18 kts | 128° |
| 2026-05-05 05:28 | 24.44401 | 54.66327 | 90 ft | 19 kts | 128° |
| 2026-05-05 05:29 | 24.44320 | 54.66442 | 91 ft | 19 kts | 128° |
| 2026-05-05 05:29 | 24.44236 | 54.66560 | 91 ft | 20 kts | 128° |
| 2026-05-05 05:29 | 24.44151 | 54.66679 | 91 ft | 17 kts | 128° |
| 2026-05-05 05:29 | 24.44132 | 54.66746 | 88 ft | 7 kts | 66° |
| 2026-05-05 05:30 | 24.44167 | 54.66789 | 91 ft | 8 kts | 41° |
| 2026-05-05 05:30 | 24.44212 | 54.66828 | 89 ft | 9 kts | 38° |
| 2026-05-05 05:30 | 24.44263 | 54.66871 | 88 ft | 10 kts | 36° |
| 2026-05-05 05:30 | 24.44316 | 54.66894 | 91 ft | 6 kts | 351° |
| 2026-05-05 05:31 | 24.44345 | 54.66869 | 89 ft | 6 kts | 312° |
| 2026-05-05 05:31 | 24.44418 | 54.66767 | 90 ft | 42 kts | 308° |
| 2026-05-05 05:31 | 24.44751 | 54.66301 | 88 ft | 112 kts | 308° |
| 2026-05-05 05:31 | 24.45361 | 54.65440 | 86 ft | 172 kts | 308° |
| 2026-05-05 05:32 | 24.46172 | 54.64292 | 467 ft | 193 kts | 306° |
| 2026-05-05 05:32 | 24.46972 | 54.63155 | 1234 ft | 191 kts | 307° |
| 2026-05-05 05:32 | 24.47793 | 54.61964 | 1558 ft | 200 kts | 308° |
| 2026-05-05 05:32 | 24.48663 | 54.60737 | 1695 ft | 207 kts | 309° |
| 2026-05-05 05:33 | 24.49584 | 54.59452 | 1809 ft | 215 kts | 309° |
| 2026-05-05 05:33 | 24.50523 | 54.58140 | 1963 ft | 222 kts | 309° |
| 2026-05-05 05:33 | 24.51495 | 54.56779 | 2088 ft | 231 kts | 309° |
| 2026-05-05 05:33 | 24.52631 | 54.55532 | 2279 ft | 232 kts | 328° |
| 2026-05-05 05:34 | 24.54147 | 54.54988 | 2447 ft | 232 kts | 359° |
| 2026-05-05 05:34 | 24.55687 | 54.55423 | 2660 ft | 230 kts | 30° |
| 2026-05-05 05:34 | 24.56997 | 54.56428 | 2971 ft | 231 kts | 37° |
| 2026-05-05 05:34 | 24.58267 | 54.57524 | 3206 ft | 233 kts | 37° |
| 2026-05-05 05:35 | 24.59498 | 54.58683 | 3434 ft | 235 kts | 45° |
| 2026-05-05 05:35 | 24.60293 | 54.60245 | 3671 ft | 239 kts | 75° |
| 2026-05-05 05:35 | 24.60206 | 54.62088 | 3754 ft | 253 kts | 110° |
| 2026-05-05 05:35 | 24.59273 | 54.63762 | 3877 ft | 262 kts | 124° |
| 2026-05-05 05:36 | 24.58289 | 54.65483 | 4025 ft | 270 kts | 118° |
| 2026-05-05 05:36 | 24.57346 | 54.67271 | 4223 ft | 277 kts | 117° |
| 2026-05-05 05:36 | 24.56392 | 54.69126 | 4532 ft | 280 kts | 117° |
| 2026-05-05 05:36 | 24.55422 | 54.71028 | 4805 ft | 283 kts | 117° |
| 2026-05-05 05:37 | 24.54467 | 54.72891 | 5109 ft | 284 kts | 117° |
| 2026-05-05 05:37 | 24.53493 | 54.74775 | 5480 ft | 284 kts | 117° |
| 2026-05-05 05:37 | 24.52513 | 54.76660 | 5796 ft | 285 kts | 117° |
| 2026-05-05 05:37 | 24.51526 | 54.78553 | 6088 ft | 287 kts | 117° |
| 2026-05-05 05:38 | 24.50532 | 54.80453 | 6397 ft | 287 kts | 117° |
| 2026-05-05 05:38 | 24.49535 | 54.82360 | 6681 ft | 289 kts | 117° |
| 2026-05-05 05:38 | 24.48532 | 54.84280 | 6960 ft | 291 kts | 117° |
| 2026-05-05 05:38 | 24.47525 | 54.86208 | 7264 ft | 292 kts | 117° |
| 2026-05-05 05:39 | 24.46510 | 54.88148 | 7552 ft | 293 kts | 117° |
| 2026-05-05 05:39 | 24.45492 | 54.90093 | 7835 ft | 295 kts | 117° |
| 2026-05-05 05:39 | 24.44468 | 54.92049 | 8129 ft | 296 kts | 117° |
| 2026-05-05 05:39 | 24.43439 | 54.94017 | 8425 ft | 298 kts | 117° |
| 2026-05-05 05:40 | 24.42404 | 54.95992 | 8720 ft | 300 kts | 117° |
| 2026-05-05 05:40 | 24.41362 | 54.97980 | 9032 ft | 301 kts | 117° |
| 2026-05-05 05:40 | 24.40317 | 54.99974 | 9332 ft | 302 kts | 117° |
| 2026-05-05 05:40 | 24.39266 | 55.01977 | 9636 ft | 303 kts | 117° |
| 2026-05-05 05:41 | 24.38209 | 55.03991 | 9907 ft | 305 kts | 117° |
| 2026-05-05 05:41 | 24.37162 | 55.05985 | 10111 ft | 309 kts | 117° |
| 2026-05-05 05:41 | 24.36060 | 55.08085 | 10258 ft | 316 kts | 118° |
| 2026-05-05 05:41 | 24.34951 | 55.10199 | 10381 ft | 324 kts | 118° |
| 2026-05-05 05:42 | 24.33816 | 55.12359 | 10505 ft | 331 kts | 118° |
| 2026-05-05 05:42 | 24.32656 | 55.14566 | 10640 ft | 337 kts | 118° |
| 2026-05-05 05:42 | 24.31472 | 55.16817 | 10756 ft | 344 kts | 118° |
| 2026-05-05 05:42 | 24.30287 | 55.19067 | 10965 ft | 347 kts | 118° |
| 2026-05-05 05:43 | 24.29078 | 55.21360 | 11220 ft | 349 kts | 118° |
| 2026-05-05 05:43 | 24.27844 | 55.23701 | 11468 ft | 350 kts | 119° |
| 2026-05-05 05:43 | 24.26622 | 55.26017 | 11728 ft | 352 kts | 119° |
| 2026-05-05 05:43 | 24.25397 | 55.28339 | 12033 ft | 352 kts | 119° |
| 2026-05-05 05:44 | 24.24186 | 55.30632 | 12302 ft | 353 kts | 120° |
| 2026-05-05 05:44 | 24.22935 | 55.33001 | 12564 ft | 355 kts | 120° |
| 2026-05-05 05:44 | 24.21710 | 55.35320 | 12801 ft | 357 kts | 120° |
| 2026-05-05 05:44 | 24.20463 | 55.37679 | 13038 ft | 359 kts | 120° |
| 2026-05-05 05:45 | 24.19209 | 55.40049 | 13301 ft | 361 kts | 120° |
| 2026-05-05 05:45 | 24.17950 | 55.42429 | 13564 ft | 362 kts | 120° |
| 2026-05-05 05:45 | 24.16683 | 55.44823 | 13800 ft | 364 kts | 120° |
| 2026-05-05 05:45 | 24.15413 | 55.47222 | 14037 ft | 365 kts | 120° |
| 2026-05-05 05:46 | 24.14138 | 55.49628 | 14288 ft | 366 kts | 120° |
| 2026-05-05 05:46 | 24.12858 | 55.52044 | 14537 ft | 367 kts | 120° |
| 2026-05-05 05:46 | 24.11573 | 55.54467 | 14768 ft | 369 kts | 120° |
| 2026-05-05 05:46 | 24.10285 | 55.56896 | 15003 ft | 370 kts | 120° |
| 2026-05-05 05:47 | 24.08988 | 55.59339 | 15243 ft | 371 kts | 120° |
| 2026-05-05 05:47 | 24.07688 | 55.61786 | 15491 ft | 373 kts | 120° |
| 2026-05-05 05:47 | 24.06383 | 55.64241 | 15726 ft | 374 kts | 120° |
| 2026-05-05 05:47 | 24.05096 | 55.66718 | 15982 ft | 375 kts | 119° |
| 2026-05-05 05:48 | 24.03871 | 55.69245 | 16232 ft | 377 kts | 117° |
| 2026-05-05 05:48 | 24.02678 | 55.71800 | 16479 ft | 378 kts | 117° |
| 2026-05-05 05:48 | 24.01489 | 55.74370 | 16726 ft | 379 kts | 117° |
| 2026-05-05 05:48 | 24.00290 | 55.76946 | 16980 ft | 381 kts | 117° |
| 2026-05-05 05:49 | 23.99078 | 55.79529 | 17249 ft | 382 kts | 117° |
| 2026-05-05 05:49 | 23.97873 | 55.82075 | 17529 ft | 383 kts | 118° |
| 2026-05-05 05:49 | 23.96642 | 55.84661 | 17778 ft | 385 kts | 118° |
| 2026-05-05 05:49 | 23.95401 | 55.87261 | 18015 ft | 387 kts | 118° |
| 2026-05-05 05:50 | 23.94153 | 55.89872 | 18267 ft | 388 kts | 118° |
| 2026-05-05 05:50 | 23.92899 | 55.92492 | 18437 ft | 391 kts | 118° |
| 2026-05-05 05:50 | 23.91630 | 55.95143 | 18547 ft | 396 kts | 118° |
| 2026-05-05 05:50 | 23.90346 | 55.97824 | 18657 ft | 401 kts | 118° |
| 2026-05-05 05:51 | 23.89046 | 56.00539 | 18773 ft | 406 kts | 118° |
| 2026-05-05 05:51 | 23.87730 | 56.03287 | 18875 ft | 411 kts | 118° |
| 2026-05-05 05:51 | 23.86401 | 56.06069 | 18972 ft | 415 kts | 118° |
| 2026-05-05 05:51 | 23.85057 | 56.08873 | 19070 ft | 419 kts | 118° |
| 2026-05-05 05:52 | 23.83697 | 56.11704 | 19157 ft | 423 kts | 118° |
| 2026-05-05 05:52 | 23.82320 | 56.14569 | 19254 ft | 427 kts | 118° |
| 2026-05-05 05:52 | 23.80934 | 56.17451 | 19352 ft | 431 kts | 118° |
| 2026-05-05 05:52 | 23.79532 | 56.20364 | 19430 ft | 435 kts | 118° |
| 2026-05-05 05:53 | 23.78118 | 56.23303 | 19513 ft | 438 kts | 118° |
| 2026-05-05 05:53 | 23.76696 | 56.26258 | 19604 ft | 442 kts | 118° |
| 2026-05-05 05:53 | 23.75262 | 56.29237 | 19677 ft | 445 kts | 118° |
| 2026-05-05 05:53 | 23.73816 | 56.32238 | 19757 ft | 448 kts | 118° |
| 2026-05-05 05:54 | 23.72358 | 56.35264 | 19797 ft | 452 kts | 118° |
| 2026-05-05 05:54 | 23.70895 | 56.38296 | 20032 ft | 450 kts | 118° |
| 2026-05-05 05:54 | 23.69433 | 56.41325 | 20119 ft | 453 kts | 118° |
| 2026-05-05 05:54 | 23.67962 | 56.44369 | 20264 ft | 454 kts | 118° |
| 2026-05-05 05:55 | 23.66491 | 56.47411 | 20418 ft | 454 kts | 118° |
| 2026-05-05 05:55 | 23.65013 | 56.50467 | 20509 ft | 456 kts | 118° |
| 2026-05-05 05:55 | 23.63524 | 56.53539 | 20539 ft | 460 kts | 118° |
| 2026-05-05 05:55 | 23.62011 | 56.56648 | 20394 ft | 468 kts | 118° |
| 2026-05-05 05:56 | 23.60454 | 56.59828 | 19937 ft | 484 kts | 118° |
| 2026-05-05 05:56 | 23.58809 | 56.63152 | 18653 ft | 516 kts | 118° |
| 2026-05-05 05:56 | 23.57019 | 56.66662 | 16651 ft | 558 kts | 120° |
| 2026-05-05 05:56 | 23.55006 | 56.70406 | 15116 ft | 582 kts | 121° |
| 2026-05-05 05:57 | 23.52861 | 56.74131 | 14832 ft | 575 kts | 123° |
| 2026-05-05 05:57 | 23.50676 | 56.77670 | 15601 ft | 550 kts | 125° |
| 2026-05-05 05:57 | 23.48988 | 56.80216 | 16589 ft | 527 kts | 127° |